Gordon, NE

3:25 PM MDT on August 27, 2015 (GMT -0600)
Pine Ridge | | Change Station
CLOSE
Current Station
Airport
Location: Pine Ridge,
Elevation: 3330 ft
Nearby Weather Stations

Elev 3330 ft 43.02 °N, 102.52 °W | Updated 33 minutes ago

Overcast
Overcast
74 °F
Feels Like 74 °F
N
14
Wind Variable Wind from NNE

Today
High -- | Low -- °F
--% Chance of Precip.
Yesterday
High -- | Low -- °F
Precip. -- in
6:07 AM 7:32 PM
Waxing Gibbous, 95% visible
Pressure 29.95 in
Visibility 10.0 miles
Clouds Few 10000 ft
Dew Point 57 °F
Humidity 55%
Rainfall 0.00 in
Snow Depth Not available.
UV 7 out of 12
Pollen 9.80 out of 12
Air Quality Not available.
Flu Activity Not available.
METAR KIEN 272052Z AUTO 02012KT 10SM FEW100 23/14 A3003 RMK AO2 SLP140 T02330139 51004
Pressure 29.95 in
Visibility 10.0 miles
Clouds Few 10000 ft
Dew Point 57 °F
Humidity 55%
Rainfall 0.00 in
Snow Depth Not available.
UV 7 out of 12
Pollen 9.80 out of 12
Air Quality Not available.
Flu Activity Not available.
METAR KIEN 272052Z AUTO 02012KT 10SM FEW100 23/14 A3003 RMK AO2 SLP140 T02330139 51004

10-Day Weather Forecast

×

Almanac

Astronomy

Aug. 27, 2015 Rise Set
Actual Time
Civil Twilight
Nautical Twilight
Astronomical Twilight
Moon
Length of Visible Light
Length of Day
Tomorrow will be .
, % of the Moon is Illuminated

Today's Extremes

State Highs State Lows

Community

WunderPhotos

Upload Photos

1,850,235 photos uploaded!

WunderBlogs® & News

Nearby

Air Quality

  Air Quality AQ Index Pollutant
Not available.

Snow Depth

Station Depth Elevation

Earthquake Activity

City Distance Mag. Time & Date
Minimum magnitude displayed is 2.5.

Coastal Water Temperatures

Place Temperature

Stations

Nearby Weather Stations

Station Location Temp. Windchill Dew Point Humidity Wind Precip. Elev Updated Type